createdAt,value
2023-04-14T00:00:17.493Z,3.43
2023-04-14T00:02:45.879Z,3.90
2023-04-14T00:05:14.237Z,3.87
2023-04-14T00:07:42.665Z,4.30
2023-04-14T00:10:12.517Z,3.87
2023-04-14T00:12:40.716Z,4.20
2023-04-14T00:15:09.771Z,4.70
2023-04-14T00:17:37.924Z,4.57
2023-04-14T00:20:07.013Z,5.17
2023-04-14T00:22:35.075Z,6.57
2023-04-14T00:25:03.532Z,5.50
2023-04-14T00:27:32.955Z,5.13
2023-04-14T00:30:01.097Z,5.00
2023-04-14T00:32:29.319Z,5.80
2023-04-14T00:34:57.671Z,5.23
2023-04-14T00:37:25.861Z,6.60
2023-04-14T00:39:54.041Z,5.50
2023-04-14T00:42:22.162Z,5.47
2023-04-14T00:44:51.624Z,4.97
2023-04-14T00:47:22.872Z,4.87
2023-04-14T00:49:51.376Z,4.97
2023-04-14T00:52:22.206Z,4.70
2023-04-14T00:54:51.161Z,4.60
2023-04-14T00:57:19.391Z,5.07
2023-04-14T00:59:47.394Z,5.60
2023-04-14T01:02:20.401Z,5.60
2023-04-14T01:04:54.219Z,5.00
2023-04-14T01:07:24.614Z,5.40
2023-04-14T01:09:53.823Z,5.07
2023-04-14T01:12:32.717Z,4.87
2023-04-14T01:15:10.849Z,5.13
2023-04-14T01:17:46.584Z,6.20
2023-04-14T01:20:28.340Z,5.77
2023-04-14T01:23:05.636Z,6.03
2023-04-14T01:26:07.931Z,5.37
2023-04-14T01:29:07.178Z,6.30
2023-04-14T01:31:42.156Z,6.00
2023-04-14T01:34:21.149Z,5.93
2023-04-14T01:36:55.883Z,5.30
2023-04-14T01:39:28.446Z,4.23
2023-04-14T01:41:59.283Z,4.40
2023-04-14T01:44:30.496Z,4.33
2023-04-14T01:47:05.537Z,3.57
2023-04-14T01:49:39.318Z,4.07
2023-04-14T01:52:10.935Z,3.80
2023-04-14T01:54:42.393Z,3.77
2023-04-14T01:57:13.873Z,4.20
2023-04-14T01:59:43.414Z,3.50
2023-04-14T02:02:16.390Z,3.70
2023-04-14T02:04:45.725Z,3.43
2023-04-14T02:07:14.506Z,3.80
2023-04-14T02:09:44.397Z,3.60
2023-04-14T02:12:13.492Z,3.43
2023-04-14T02:14:43.314Z,3.23
2023-04-14T02:17:14.652Z,3.60
2023-04-14T02:19:46.282Z,2.80
2023-04-14T02:22:14.738Z,3.73
2023-04-14T02:24:42.776Z,3.10
2023-04-14T02:27:17.007Z,3.67
2023-04-14T02:29:49.587Z,3.77
2023-04-14T02:32:24.294Z,3.17
2023-04-14T02:34:55.147Z,4.00
2023-04-14T02:37:30.520Z,3.77
2023-04-14T02:40:04.440Z,3.00
2023-04-14T02:42:35.237Z,3.30
2023-04-14T02:45:06.832Z,3.37
2023-04-14T02:47:39.571Z,3.20
2023-04-14T02:50:12.836Z,3.90
2023-04-14T02:52:47.691Z,4.13
2023-04-14T02:55:15.973Z,3.80
2023-04-14T02:57:45.238Z,4.17
2023-04-14T03:00:14.375Z,3.77
2023-04-14T03:02:52.830Z,4.50
2023-04-14T03:05:22.760Z,4.60
2023-04-14T03:07:57.919Z,4.90
2023-04-14T03:10:27.529Z,5.20
2023-04-14T03:12:59.508Z,5.30
2023-04-14T03:15:28.244Z,5.60
2023-04-14T03:17:58.644Z,6.53
2023-04-14T03:20:29.029Z,5.90
2023-04-14T03:23:01.988Z,7.00
2023-04-14T03:25:36.009Z,7.00
2023-04-14T03:28:07.039Z,6.77
2023-04-14T03:30:37.790Z,5.70
2023-04-14T03:33:10.051Z,6.03
2023-04-14T03:35:39.193Z,6.70
2023-04-14T03:38:11.026Z,6.40
2023-04-14T03:40:44.164Z,5.93
2023-04-14T03:43:14.205Z,6.73
2023-04-14T03:45:44.304Z,6.90
2023-04-14T03:48:18.354Z,6.30
2023-04-14T03:50:51.914Z,6.23
2023-04-14T03:53:22.799Z,6.07
2023-04-14T03:55:53.845Z,6.27
2023-04-14T03:58:23.181Z,6.03
2023-04-14T04:00:54.696Z,6.00
2023-04-14T04:03:25.287Z,5.23
2023-04-14T04:05:54.437Z,4.97
2023-04-14T04:08:24.573Z,4.60
2023-04-14T04:10:55.742Z,5.67
2023-04-14T04:13:26.185Z,4.70
2023-04-14T04:15:55.533Z,5.80
2023-04-14T04:18:28.273Z,5.80
2023-04-14T04:20:58.798Z,6.20
2023-04-14T04:23:29.346Z,6.03
2023-04-14T04:25:57.713Z,6.37
2023-04-14T04:28:33.290Z,7.80
2023-04-14T04:31:02.476Z,7.40
2023-04-14T04:33:35.428Z,8.30
2023-04-14T04:36:06.380Z,8.93
2023-04-14T04:38:39.882Z,9.70
2023-04-14T04:41:08.524Z,9.87
2023-04-14T04:43:38.103Z,10.03
2023-04-14T04:46:30.589Z,10.57
2023-04-14T04:49:01.220Z,11.27
2023-04-14T04:51:29.688Z,10.40
2023-04-14T04:53:58.476Z,11.17
2023-04-14T04:56:27.253Z,11.77
2023-04-14T04:58:55.374Z,11.40
2023-04-14T05:01:23.459Z,11.80
2023-04-14T05:03:51.526Z,12.73
2023-04-14T05:06:21.244Z,11.70
2023-04-14T05:08:49.321Z,12.10
2023-04-14T05:11:17.304Z,12.23
2023-04-14T05:13:45.574Z,13.97
2023-04-14T05:16:14.869Z,13.60
2023-04-14T05:18:43.714Z,11.00
2023-04-14T05:21:13.635Z,13.63
2023-04-14T05:23:44.752Z,12.23
2023-04-14T05:26:39.084Z,11.47
2023-04-14T05:29:02.185Z,10.60
2023-04-14T05:31:30.466Z,13.37
2023-04-14T05:33:58.716Z,13.20
2023-04-14T05:36:27.461Z,12.90
2023-04-14T05:38:56.918Z,14.40
2023-04-14T05:41:25.025Z,12.40
2023-04-14T05:43:53.004Z,13.97
2023-04-14T05:46:21.223Z,12.57
2023-04-14T05:48:49.349Z,11.80
2023-04-14T05:51:17.630Z,9.90
2023-04-14T05:53:45.947Z,11.93
2023-04-14T05:56:15.476Z,10.53
2023-04-14T05:58:43.493Z,9.50
2023-04-14T06:01:12.686Z,12.13
2023-04-14T06:03:41.250Z,11.20
2023-04-14T06:06:09.788Z,12.27
2023-04-14T06:08:37.854Z,11.90
2023-04-14T06:11:06.662Z,11.57
2023-04-14T06:13:36.571Z,12.70
2023-04-14T06:16:04.930Z,10.73
2023-04-14T06:18:32.968Z,11.70
2023-04-14T06:21:01.032Z,11.37
2023-04-14T06:23:29.177Z,10.90
2023-04-14T06:25:57.836Z,11.40
2023-04-14T06:28:26.360Z,10.93
2023-04-14T06:30:55.938Z,10.00
2023-04-14T06:33:23.981Z,10.90
2023-04-14T06:35:51.953Z,11.20
2023-04-14T06:38:20.711Z,10.90
2023-04-14T06:40:49.149Z,9.27
2023-04-14T06:43:18.738Z,8.90
2023-04-14T06:45:46.889Z,9.27
2023-04-14T06:48:16.319Z,8.03
2023-04-14T06:50:44.652Z,7.83
2023-04-14T06:53:12.820Z,6.80
2023-04-14T06:55:42.141Z,7.10
2023-04-14T06:58:10.289Z,5.47
2023-04-14T07:00:39.034Z,7.03
2023-04-14T07:03:07.162Z,5.67
2023-04-14T07:05:36.676Z,6.50
2023-04-14T07:08:05.012Z,6.20
2023-04-14T07:10:33.012Z,6.13
2023-04-14T07:13:01.223Z,7.03
2023-04-14T07:15:29.998Z,5.80
2023-04-14T07:17:59.928Z,8.53
2023-04-14T07:20:28.711Z,7.43
2023-04-14T07:22:58.212Z,8.43
2023-04-14T07:25:26.488Z,8.40
2023-04-14T07:28:03.181Z,7.97
2023-04-14T07:30:32.385Z,8.17
2023-04-14T07:33:01.569Z,6.93
2023-04-14T07:35:30.090Z,7.20
2023-04-14T07:37:59.411Z,6.10
2023-04-14T07:40:27.534Z,7.00
2023-04-14T07:42:55.544Z,6.23
2023-04-14T07:45:23.632Z,6.43
2023-04-14T07:47:52.209Z,6.60
2023-04-14T07:50:20.445Z,5.80
2023-04-14T07:52:48.486Z,5.57
2023-04-14T07:55:17.944Z,5.83
2023-04-14T07:57:46.017Z,5.10
2023-04-14T08:00:15.508Z,5.80
2023-04-14T08:02:43.858Z,5.00
2023-04-14T08:05:13.010Z,6.13
2023-04-14T08:07:45.637Z,6.30
2023-04-14T08:10:14.693Z,7.20
2023-04-14T08:12:45.200Z,7.63
2023-04-14T08:15:14.241Z,7.63
2023-04-14T08:17:43.475Z,8.20
2023-04-14T08:20:12.987Z,8.00
2023-04-14T08:22:43.364Z,7.30
2023-04-14T08:25:12.980Z,7.37
2023-04-14T08:27:41.480Z,7.60
2023-04-14T08:30:13.199Z,8.63
2023-04-14T08:32:42.238Z,8.50
2023-04-14T08:35:36.838Z,6.90
2023-04-14T08:38:01.652Z,8.10
2023-04-14T08:40:38.813Z,6.30
2023-04-14T08:43:07.958Z,7.47
2023-04-14T08:45:38.856Z,8.10
2023-04-14T08:48:09.239Z,7.30
2023-04-14T08:50:43.201Z,6.60
2023-04-14T08:53:11.565Z,6.33
2023-04-14T08:55:42.705Z,5.80
2023-04-14T08:58:11.733Z,6.90
2023-04-14T09:00:42.466Z,5.90
2023-04-14T09:03:14.168Z,6.10
2023-04-14T09:05:43.972Z,5.97
2023-04-14T09:08:14.178Z,5.63
2023-04-14T09:10:43.662Z,5.90
2023-04-14T09:13:15.672Z,6.30
2023-04-14T09:15:48.119Z,6.03
2023-04-14T09:18:17.583Z,5.83
2023-04-14T09:20:48.294Z,7.10
2023-04-14T09:23:37.360Z,6.90
2023-04-14T09:26:09.492Z,6.67
2023-04-14T09:28:38.149Z,7.00
2023-04-14T09:31:08.844Z,6.27
2023-04-14T09:33:42.282Z,5.90
2023-04-14T09:36:20.890Z,7.07
2023-04-14T09:38:51.740Z,6.67
2023-04-14T09:41:22.937Z,6.50
2023-04-14T09:43:52.794Z,7.17
2023-04-14T09:46:22.981Z,7.60
2023-04-14T09:48:53.117Z,6.77
2023-04-14T09:51:28.539Z,6.73
2023-04-14T09:54:02.981Z,8.77
2023-04-14T09:56:31.721Z,7.80
2023-04-14T09:59:02.347Z,7.70
2023-04-14T10:01:35.077Z,7.57
2023-04-14T10:04:05.548Z,7.90
2023-04-14T10:06:34.734Z,7.50
2023-04-14T10:09:04.087Z,7.33
2023-04-14T10:11:33.594Z,7.27
2023-04-14T10:14:05.513Z,7.67
2023-04-14T10:16:35.993Z,6.63
2023-04-14T10:19:06.074Z,7.00
2023-04-14T10:21:35.824Z,7.10
2023-04-14T10:24:05.676Z,7.50
2023-04-14T10:26:35.943Z,7.73
2023-04-14T10:29:04.638Z,7.47
2023-04-14T10:31:39.530Z,7.23
2023-04-14T10:34:12.696Z,6.80
2023-04-14T10:36:43.657Z,7.20
2023-04-14T10:39:13.963Z,6.87
2023-04-14T10:41:50.565Z,7.20
2023-04-14T10:44:30.301Z,6.43
2023-04-14T10:47:09.228Z,7.60
2023-04-14T10:49:40.367Z,7.37
2023-04-14T10:52:35.042Z,7.50
2023-04-14T10:55:09.528Z,7.17
2023-04-14T10:57:42.329Z,6.13
2023-04-14T11:00:26.590Z,6.13
2023-04-14T11:03:04.524Z,6.90
2023-04-14T11:05:34.831Z,6.23
2023-04-14T11:08:14.809Z,6.93
2023-04-14T11:11:01.333Z,7.33
2023-04-14T11:13:31.821Z,7.03
2023-04-14T11:16:04.168Z,7.20
2023-04-14T11:18:45.609Z,6.73
2023-04-14T11:21:29.857Z,7.77
2023-04-14T11:24:02.168Z,7.00
2023-04-14T11:26:30.730Z,6.63
2023-04-14T11:29:00.695Z,6.60
2023-04-14T11:31:30.239Z,6.30
2023-04-14T11:34:00.706Z,6.80
2023-04-14T11:36:32.349Z,6.30
2023-04-14T11:39:01.244Z,6.33
2023-04-14T11:41:31.693Z,7.00
2023-04-14T11:44:03.980Z,7.27
2023-04-14T11:46:33.924Z,5.80
2023-04-14T11:49:06.014Z,5.50
2023-04-14T11:51:35.053Z,5.63
2023-04-14T11:54:05.949Z,5.50
2023-04-14T11:56:35.076Z,5.30
2023-04-14T11:59:08.970Z,5.73
2023-04-14T12:01:38.154Z,5.10
2023-04-14T12:04:10.565Z,5.13
2023-04-14T12:06:40.272Z,4.23
2023-04-14T12:09:23.857Z,4.30
2023-04-14T12:11:56.454Z,4.50
2023-04-14T12:14:25.798Z,4.03
2023-04-14T12:16:54.623Z,4.70
2023-04-14T12:19:25.388Z,5.20
2023-04-14T12:21:54.426Z,3.87
2023-04-14T12:24:22.884Z,5.13
2023-04-14T12:26:51.800Z,4.53
2023-04-14T12:29:22.912Z,4.83
2023-04-14T12:31:55.592Z,5.30
2023-04-14T12:34:29.569Z,4.60
2023-04-14T12:36:58.886Z,4.03
2023-04-14T12:39:29.370Z,3.30
2023-04-14T12:42:01.511Z,3.57
2023-04-14T12:44:30.587Z,4.10
2023-04-14T12:46:59.682Z,3.03
2023-04-14T12:49:39.468Z,3.63
2023-04-14T12:52:08.987Z,3.93
2023-04-14T12:54:48.588Z,4.23
2023-04-14T12:57:19.051Z,3.80
2023-04-14T12:59:49.811Z,3.60
2023-04-14T13:02:19.362Z,3.90
2023-04-14T13:04:50.091Z,4.57
2023-04-14T13:07:18.905Z,4.10
2023-04-14T13:09:47.431Z,4.40
2023-04-14T13:12:15.975Z,4.13
2023-04-14T13:14:44.587Z,4.20
2023-04-14T13:17:13.263Z,3.90
2023-04-14T13:19:44.067Z,4.90
2023-04-14T13:22:16.124Z,4.83
2023-04-14T13:24:46.106Z,4.63
2023-04-14T13:27:14.274Z,5.30
2023-04-14T13:29:42.447Z,5.07
2023-04-14T13:32:11.123Z,2.87
2023-04-14T13:34:40.534Z,3.00
2023-04-14T13:37:08.558Z,2.87
2023-04-14T13:39:38.617Z,3.57
2023-04-14T13:42:06.904Z,4.47
2023-04-14T13:44:35.694Z,4.93
2023-04-14T13:47:03.740Z,3.90
2023-04-14T13:49:32.141Z,3.87
2023-04-14T13:52:00.161Z,4.07
2023-04-14T13:54:28.334Z,3.13
2023-04-14T13:56:57.804Z,2.97
2023-04-14T13:59:25.848Z,3.20
2023-04-14T14:01:54.034Z,2.97
2023-04-14T14:04:22.513Z,3.50
2023-04-14T14:06:50.770Z,3.10
2023-04-14T14:09:18.774Z,3.30
2023-04-14T14:11:46.808Z,3.67
2023-04-14T14:14:16.221Z,3.77
2023-04-14T14:16:44.423Z,3.37
2023-04-14T14:19:16.958Z,3.50
2023-04-14T14:21:45.385Z,2.97
2023-04-14T14:24:14.030Z,3.33
2023-04-14T14:26:42.156Z,3.87
2023-04-14T14:29:10.235Z,3.63
2023-04-14T14:31:39.746Z,4.07
2023-04-14T14:34:09.470Z,2.00
2023-04-14T14:36:37.658Z,2.20
2023-04-14T14:39:05.937Z,2.63
2023-04-14T14:41:33.989Z,2.50
2023-04-14T14:44:02.145Z,1.80
2023-04-14T14:46:30.831Z,1.90
2023-04-14T14:49:00.446Z,2.13
2023-04-14T14:51:28.653Z,2.50
2023-04-14T14:54:08.859Z,2.80
2023-04-14T14:56:37.857Z,2.60
2023-04-14T14:59:05.971Z,2.50
2023-04-14T15:01:34.362Z,2.30
2023-04-14T15:04:05.297Z,2.43
2023-04-14T15:06:34.550Z,2.50
2023-04-14T15:09:03.744Z,2.53
2023-04-14T15:11:31.868Z,2.30
2023-04-14T15:14:00.212Z,2.20
2023-04-14T15:16:28.484Z,2.10
2023-04-14T15:18:56.568Z,2.20
2023-04-14T15:21:26.145Z,2.60
2023-04-14T15:23:54.164Z,2.57
2023-04-14T15:26:22.409Z,3.10
2023-04-14T15:28:50.595Z,3.30
2023-04-14T15:31:19.524Z,3.40
2023-04-14T15:33:48.488Z,3.60
2023-04-14T15:36:17.565Z,4.50
2023-04-14T15:38:50.079Z,4.10
2023-04-14T15:41:20.392Z,3.27
2023-04-14T15:43:50.627Z,4.47
2023-04-14T15:46:19.903Z,4.20
2023-04-14T15:48:50.891Z,3.90
2023-04-14T15:51:21.987Z,3.47
2023-04-14T15:54:05.194Z,3.87
2023-04-14T15:56:34.599Z,3.63
2023-04-14T15:59:05.236Z,3.50
2023-04-14T16:01:34.850Z,3.63
2023-04-14T16:04:03.902Z,3.57
2023-04-14T16:06:33.148Z,3.67
2023-04-14T16:09:06.216Z,3.17
2023-04-14T16:11:35.448Z,3.20
2023-04-14T16:14:05.245Z,3.43
2023-04-14T16:16:34.162Z,3.00
2023-04-14T16:19:03.266Z,2.80
2023-04-14T16:21:32.531Z,2.90
2023-04-14T16:24:03.494Z,3.40
2023-04-14T16:26:32.393Z,3.27
2023-04-14T16:29:01.484Z,2.90
2023-04-14T16:31:30.266Z,3.50
2023-04-14T16:34:00.237Z,3.20
2023-04-14T16:36:29.828Z,3.17
2023-04-14T16:38:59.199Z,3.60
2023-04-14T16:41:30.456Z,2.90
2023-04-14T16:44:02.002Z,2.93
2023-04-14T16:46:31.305Z,2.80
2023-04-14T16:49:00.426Z,2.70
2023-04-14T16:51:29.838Z,3.03
2023-04-14T16:54:01.647Z,2.70
2023-04-14T16:56:33.900Z,3.00
2023-04-14T16:59:03.927Z,2.80
2023-04-14T17:01:33.372Z,3.00
2023-04-14T17:04:03.413Z,2.83
2023-04-14T17:06:33.449Z,2.83
2023-04-14T17:09:03.180Z,3.40
2023-04-14T17:11:34.513Z,3.43
2023-04-14T17:14:03.906Z,4.87
2023-04-14T17:16:33.307Z,5.83
2023-04-14T17:19:04.676Z,2.73
2023-04-14T17:21:33.501Z,5.50
2023-04-14T17:24:03.260Z,5.20
2023-04-14T17:26:35.291Z,10.00
2023-04-14T17:29:04.742Z,6.43
2023-04-14T17:31:34.152Z,13.30
2023-04-14T17:34:04.786Z,13.13
2023-04-14T17:36:34.367Z,57.33
2023-04-14T17:39:04.132Z,12.77
2023-04-14T17:41:35.188Z,17.70
2023-04-14T17:44:06.246Z,6.73
2023-04-14T17:46:37.262Z,11.03
2023-04-14T17:49:08.234Z,5.87
2023-04-14T17:51:37.203Z,3.10
2023-04-14T17:54:07.095Z,9.63
2023-04-14T17:56:38.914Z,14.20
2023-04-14T17:59:07.749Z,4.60
2023-04-14T18:01:37.525Z,3.40
2023-04-14T18:04:08.818Z,3.23
2023-04-14T18:06:38.704Z,4.10
2023-04-14T18:09:08.181Z,3.20
2023-04-14T18:11:40.119Z,11.13
2023-04-14T18:14:08.875Z,4.70
2023-04-14T18:16:39.562Z,3.83
2023-04-14T18:19:09.436Z,4.37
2023-04-14T18:21:38.638Z,4.30
2023-04-14T18:26:46.151Z,3.30
2023-04-14T18:29:14.680Z,3.87
2023-04-14T18:31:45.565Z,6.63
2023-04-14T18:34:16.934Z,4.53
2023-04-14T18:36:45.910Z,6.10
2023-04-14T18:39:16.440Z,5.70
2023-04-14T18:41:47.663Z,3.87
2023-04-14T18:44:17.117Z,5.30
2023-04-14T18:46:46.825Z,11.20
2023-04-14T18:49:15.627Z,4.23
2023-04-14T18:51:44.866Z,3.80
2023-04-14T18:54:16.148Z,4.13
2023-04-14T18:56:48.192Z,5.07
2023-04-14T18:59:18.812Z,5.00
2023-04-14T19:01:47.632Z,4.37
2023-04-14T19:04:17.359Z,5.07
2023-04-14T19:06:46.763Z,3.90
2023-04-14T19:09:15.405Z,3.80
2023-04-14T19:11:47.994Z,4.30
2023-04-14T19:14:17.390Z,4.37
2023-04-14T19:16:46.562Z,4.03
2023-04-14T19:19:15.501Z,3.63
2023-04-14T19:21:44.241Z,4.73
2023-04-14T19:24:13.387Z,4.80
2023-04-14T19:26:42.229Z,3.97
2023-04-14T19:29:12.796Z,3.80
2023-04-14T19:31:42.168Z,4.83
2023-04-14T19:34:10.979Z,4.40
2023-04-14T19:36:40.377Z,3.80
2023-04-14T19:39:10.678Z,4.60
2023-04-14T19:41:42.802Z,5.30
2023-04-14T19:44:14.678Z,4.57
2023-04-14T19:46:44.441Z,4.43
2023-04-14T19:49:14.639Z,4.60
2023-04-14T19:51:43.751Z,4.13
2023-04-14T19:54:13.005Z,4.70
2023-04-14T19:56:41.848Z,4.43
2023-04-14T19:59:10.501Z,5.40
2023-04-14T20:01:43.063Z,5.03
2023-04-14T20:04:13.186Z,5.37
2023-04-14T20:06:44.558Z,5.47
2023-04-14T20:09:13.472Z,5.10
2023-04-14T20:11:42.662Z,6.30
2023-04-14T20:14:12.117Z,5.33
2023-04-14T20:16:42.813Z,5.70
2023-04-14T20:19:12.711Z,5.83
2023-04-14T20:21:41.301Z,5.93
2023-04-14T20:24:09.969Z,5.60
2023-04-14T20:26:45.185Z,5.63
2023-04-14T20:29:16.054Z,5.53
2023-04-14T20:31:47.088Z,6.30
2023-04-14T20:34:19.919Z,5.90
2023-04-14T20:36:53.361Z,5.63
2023-04-14T20:39:22.795Z,5.77
2023-04-14T20:41:52.343Z,6.10
2023-04-14T20:44:21.767Z,6.20
2023-04-14T20:46:54.687Z,6.23
2023-04-14T20:49:24.668Z,6.60
2023-04-14T20:51:53.361Z,6.30
2023-04-14T20:54:22.763Z,7.30
2023-04-14T20:56:52.732Z,6.00
2023-04-14T20:59:22.589Z,6.97
2023-04-14T21:01:54.421Z,7.30
2023-04-14T21:04:24.980Z,6.60
2023-04-14T21:06:56.757Z,7.07
2023-04-14T21:09:25.539Z,6.60
2023-04-14T21:12:16.053Z,6.37
2023-04-14T21:15:40.642Z,5.87
2023-04-14T21:17:40.061Z,6.90
2023-04-14T21:20:10.862Z,7.43
2023-04-14T21:22:40.914Z,6.70
2023-04-14T21:25:10.377Z,6.97
2023-04-14T21:27:39.283Z,6.63
2023-04-14T21:30:09.885Z,7.50
2023-04-14T21:32:41.484Z,6.93
2023-04-14T21:35:11.581Z,7.03
2023-04-14T21:37:40.703Z,6.90
2023-04-14T21:40:10.288Z,6.73
2023-04-14T21:42:39.202Z,6.10
2023-04-14T21:45:09.636Z,6.87
2023-04-14T21:47:40.685Z,6.80
2023-04-14T21:50:11.226Z,6.57
2023-04-14T21:52:41.188Z,6.90
2023-04-14T21:55:11.554Z,7.07
2023-04-14T21:57:48.638Z,6.43
2023-04-14T22:00:18.686Z,7.40
2023-04-14T22:02:50.289Z,6.63
2023-04-14T22:05:20.156Z,6.73
2023-04-14T22:07:48.968Z,6.93
2023-04-14T22:10:17.874Z,6.50
2023-04-14T22:12:47.211Z,7.00
2023-04-14T22:15:17.064Z,6.37
2023-04-14T22:17:46.504Z,6.07
2023-04-14T22:20:16.619Z,5.57
2023-04-14T22:22:45.094Z,6.27
2023-04-14T22:25:14.016Z,5.70
2023-04-14T22:27:42.779Z,5.70
2023-04-14T22:30:12.505Z,5.00
2023-04-14T22:32:41.582Z,5.23
2023-04-14T22:35:10.943Z,4.97
2023-04-14T22:37:41.584Z,5.20
2023-04-14T22:40:12.433Z,5.50
2023-04-14T22:42:41.802Z,5.30
2023-04-14T22:45:11.294Z,5.10
2023-04-14T22:47:40.900Z,6.00
2023-04-14T22:50:11.240Z,5.40
2023-04-14T22:52:42.098Z,4.90
2023-04-14T22:55:12.014Z,5.50
2023-04-14T22:57:40.689Z,5.70
2023-04-14T23:00:11.771Z,5.37
2023-04-14T23:02:43.305Z,5.70
2023-04-14T23:05:13.061Z,5.47
2023-04-14T23:07:43.839Z,4.77
2023-04-14T23:10:14.475Z,5.17
2023-04-14T23:12:44.694Z,5.63
2023-04-14T23:15:13.388Z,5.50
2023-04-14T23:17:42.832Z,5.27
2023-04-14T23:20:11.937Z,5.27
2023-04-14T23:22:41.127Z,5.40
2023-04-14T23:25:11.549Z,5.70
2023-04-14T23:27:40.078Z,5.30
2023-04-14T23:30:11.030Z,5.17
2023-04-14T23:32:39.982Z,5.47
2023-04-14T23:35:10.371Z,5.30
2023-04-14T23:37:40.714Z,5.70
2023-04-14T23:40:14.859Z,5.00
2023-04-14T23:42:43.798Z,5.40
2023-04-14T23:45:12.657Z,5.53
2023-04-14T23:47:41.813Z,5.20
2023-04-14T23:50:11.833Z,4.80
2023-04-14T23:52:41.818Z,5.23
2023-04-14T23:55:12.259Z,5.03
2023-04-14T23:57:40.905Z,5.07
